North Mounds, Illinois
Current Conditions -  °F | °C
As of 2:35 AM on Wednesday 26 Nov 2014 (Local Time) from KCIR Reporting Station
Clear Clear  
Wind Chill: 28°   Ceiling: Unl
Heat Index: 28°   Visibility: 7mi
Dew Point: 25°   Wind: 3mph
Humidity: 90%   Direction: 90°E
Pressure: 30.16"   Gusts: NA
Location:  37.1202°N, 89.219°W
Report Text: KCIR 260835Z AUTO 09003KT 7SM CLR M02/M04 A3016 RMK AO2 T10231038
Loading
Personal Weather Stations






























Interactive Weather Map New forecast layout! Learn more

10-Day Weather Forecast

Advertisements
Track Severe Weather on mobile